sensor_id;sensor_type;location;lat;lon;timestamp;P1;durP1;ratioP1;P2;durP2;ratioP2
18796;SDS011;9526;52.612;13.300;2024-02-15T00:02:21;8.93;;;5.57;;
18796;SDS011;9526;52.612;13.300;2024-02-15T00:04:45;10.65;;;5.85;;
18796;SDS011;9526;52.612;13.300;2024-02-15T00:07:09;8.50;;;5.28;;
18796;SDS011;9526;52.612;13.300;2024-02-15T00:09:33;7.65;;;5.13;;
18796;SDS011;9526;52.612;13.300;2024-02-15T00:11:57;8.00;;;5.53;;
18796;SDS011;9526;52.612;13.300;2024-02-15T00:14:22;8.52;;;5.53;;
18796;SDS011;9526;52.612;13.300;2024-02-15T00:16:46;7.45;;;5.32;;
18796;SDS011;9526;52.612;13.300;2024-02-15T00:19:11;9.73;;;6.05;;
18796;SDS011;9526;52.612;13.300;2024-02-15T00:21:42;11.13;;;5.63;;
18796;SDS011;9526;52.612;13.300;2024-02-15T00:24:06;9.75;;;5.03;;
18796;SDS011;9526;52.612;13.300;2024-02-15T00:26:30;7.82;;;5.30;;
18796;SDS011;9526;52.612;13.300;2024-02-15T00:28:53;8.15;;;5.40;;
18796;SDS011;9526;52.612;13.300;2024-02-15T00:31:19;9.50;;;5.38;;
18796;SDS011;9526;52.612;13.300;2024-02-15T00:33:43;8.85;;;5.50;;
18796;SDS011;9526;52.612;13.300;2024-02-15T00:36:09;10.25;;;5.40;;
18796;SDS011;9526;52.612;13.300;2024-02-15T00:38:34;9.35;;;5.60;;
18796;SDS011;9526;52.612;13.300;2024-02-15T00:40:58;8.70;;;5.72;;
18796;SDS011;9526;52.612;13.300;2024-02-15T00:43:22;9.88;;;5.50;;
18796;SDS011;9526;52.612;13.300;2024-02-15T00:45:46;8.32;;;5.53;;
18796;SDS011;9526;52.612;13.300;2024-02-15T00:48:09;9.50;;;5.78;;
18796;SDS011;9526;52.612;13.300;2024-02-15T00:50:34;7.18;;;5.07;;
18796;SDS011;9526;52.612;13.300;2024-02-15T00:52:59;18.90;;;5.93;;
18796;SDS011;9526;52.612;13.300;2024-02-15T00:55:23;9.07;;;5.85;;
18796;SDS011;9526;52.612;13.300;2024-02-15T00:57:46;11.38;;;6.20;;
18796;SDS011;9526;52.612;13.300;2024-02-15T01:00:10;9.32;;;6.07;;
18796;SDS011;9526;52.612;13.300;2024-02-15T01:02:35;11.27;;;5.57;;
18796;SDS011;9526;52.612;13.300;2024-02-15T01:04:59;10.98;;;6.68;;
18796;SDS011;9526;52.612;13.300;2024-02-15T01:07:23;11.65;;;6.18;;
18796;SDS011;9526;52.612;13.300;2024-02-15T01:09:51;12.63;;;6.18;;
18796;SDS011;9526;52.612;13.300;2024-02-15T01:12:14;11.15;;;5.72;;
18796;SDS011;9526;52.612;13.300;2024-02-15T01:14:38;10.98;;;6.40;;
18796;SDS011;9526;52.612;13.300;2024-02-15T01:17:02;11.25;;;6.80;;
18796;SDS011;9526;52.612;13.300;2024-02-15T01:19:26;12.35;;;6.70;;
18796;SDS011;9526;52.612;13.300;2024-02-15T01:21:50;11.13;;;6.18;;
18796;SDS011;9526;52.612;13.300;2024-02-15T01:24:15;11.27;;;6.78;;
18796;SDS011;9526;52.612;13.300;2024-02-15T01:26:40;9.60;;;6.28;;
18796;SDS011;9526;52.612;13.300;2024-02-15T01:29:04;11.50;;;6.78;;
18796;SDS011;9526;52.612;13.300;2024-02-15T01:31:28;17.58;;;7.32;;
18796;SDS011;9526;52.612;13.300;2024-02-15T01:33:52;13.95;;;7.13;;
18796;SDS011;9526;52.612;13.300;2024-02-15T01:36:16;13.57;;;6.68;;
18796;SDS011;9526;52.612;13.300;2024-02-15T01:38:40;15.02;;;7.25;;
18796;SDS011;9526;52.612;13.300;2024-02-15T01:41:04;12.93;;;6.80;;
18796;SDS011;9526;52.612;13.300;2024-02-15T01:43:29;14.63;;;7.32;;
18796;SDS011;9526;52.612;13.300;2024-02-15T01:45:53;12.88;;;7.05;;
18796;SDS011;9526;52.612;13.300;2024-02-15T01:48:19;11.65;;;7.20;;
18796;SDS011;9526;52.612;13.300;2024-02-15T01:50:44;11.43;;;6.60;;
18796;SDS011;9526;52.612;13.300;2024-02-15T01:53:09;13.95;;;6.75;;
18796;SDS011;9526;52.612;13.300;2024-02-15T01:55:34;12.55;;;7.40;;
18796;SDS011;9526;52.612;13.300;2024-02-15T01:57:58;11.80;;;7.35;;
18796;SDS011;9526;52.612;13.300;2024-02-15T02:00:24;12.88;;;7.05;;
18796;SDS011;9526;52.612;13.300;2024-02-15T02:02:48;13.40;;;7.30;;
18796;SDS011;9526;52.612;13.300;2024-02-15T02:05:11;14.30;;;6.80;;
18796;SDS011;9526;52.612;13.300;2024-02-15T02:07:35;13.00;;;6.95;;
18796;SDS011;9526;52.612;13.300;2024-02-15T02:09:59;12.93;;;6.50;;
18796;SDS011;9526;52.612;13.300;2024-02-15T02:12:23;10.02;;;6.45;;
18796;SDS011;9526;52.612;13.300;2024-02-15T02:14:49;13.60;;;6.90;;
18796;SDS011;9526;52.612;13.300;2024-02-15T02:17:14;10.55;;;6.75;;
18796;SDS011;9526;52.612;13.300;2024-02-15T02:19:38;11.75;;;6.80;;
18796;SDS011;9526;52.612;13.300;2024-02-15T02:22:02;11.85;;;6.70;;
18796;SDS011;9526;52.612;13.300;2024-02-15T02:24:27;11.32;;;6.88;;
18796;SDS011;9526;52.612;13.300;2024-02-15T02:26:52;12.77;;;7.10;;
18796;SDS011;9526;52.612;13.300;2024-02-15T02:29:17;10.27;;;6.47;;
18796;SDS011;9526;52.612;13.300;2024-02-15T02:31:42;12.02;;;7.45;;
18796;SDS011;9526;52.612;13.300;2024-02-15T02:34:06;10.80;;;7.13;;
18796;SDS011;9526;52.612;13.300;2024-02-15T02:36:30;11.23;;;6.82;;
18796;SDS011;9526;52.612;13.300;2024-02-15T02:38:54;11.65;;;7.28;;
18796;SDS011;9526;52.612;13.300;2024-02-15T02:41:22;10.98;;;6.93;;
18796;SDS011;9526;52.612;13.300;2024-02-15T02:43:47;12.68;;;7.53;;
18796;SDS011;9526;52.612;13.300;2024-02-15T02:46:11;12.80;;;7.30;;
18796;SDS011;9526;52.612;13.300;2024-02-15T02:48:34;13.05;;;7.85;;
18796;SDS011;9526;52.612;13.300;2024-02-15T02:50:58;15.10;;;7.43;;
18796;SDS011;9526;52.612;13.300;2024-02-15T02:53:23;12.32;;;7.15;;
18796;SDS011;9526;52.612;13.300;2024-02-15T02:55:47;13.95;;;7.45;;
18796;SDS011;9526;52.612;13.300;2024-02-15T02:58:10;12.63;;;8.05;;
18796;SDS011;9526;52.612;13.300;2024-02-15T03:00:35;16.08;;;8.15;;
18796;SDS011;9526;52.612;13.300;2024-02-15T03:03:01;11.30;;;7.65;;
18796;SDS011;9526;52.612;13.300;2024-02-15T03:05:25;11.73;;;7.65;;
18796;SDS011;9526;52.612;13.300;2024-02-15T03:07:49;11.57;;;7.65;;
18796;SDS011;9526;52.612;13.300;2024-02-15T03:10:13;12.43;;;8.15;;
18796;SDS011;9526;52.612;13.300;2024-02-15T03:12:37;11.10;;;7.07;;
18796;SDS011;9526;52.612;13.300;2024-02-15T03:15:01;15.27;;;7.93;;
18796;SDS011;9526;52.612;13.300;2024-02-15T03:17:27;12.25;;;7.05;;
18796;SDS011;9526;52.612;13.300;2024-02-15T03:19:53;13.27;;;7.13;;
18796;SDS011;9526;52.612;13.300;2024-02-15T03:22:17;12.85;;;7.28;;
18796;SDS011;9526;52.612;13.300;2024-02-15T03:24:40;12.82;;;7.68;;
18796;SDS011;9526;52.612;13.300;2024-02-15T03:27:04;14.50;;;7.60;;
18796;SDS011;9526;52.612;13.300;2024-02-15T03:29:28;13.25;;;7.97;;
18796;SDS011;9526;52.612;13.300;2024-02-15T03:31:52;14.63;;;7.78;;
18796;SDS011;9526;52.612;13.300;2024-02-15T03:34:18;15.65;;;7.45;;
18796;SDS011;9526;52.612;13.300;2024-02-15T03:36:43;14.13;;;7.63;;
18796;SDS011;9526;52.612;13.300;2024-02-15T03:39:07;13.88;;;7.30;;
18796;SDS011;9526;52.612;13.300;2024-02-15T03:41:31;12.65;;;7.65;;
18796;SDS011;9526;52.612;13.300;2024-02-15T03:43:55;14.10;;;7.47;;
18796;SDS011;9526;52.612;13.300;2024-02-15T03:46:19;13.65;;;7.85;;
18796;SDS011;9526;52.612;13.300;2024-02-15T03:48:45;12.95;;;7.40;;
18796;SDS011;9526;52.612;13.300;2024-02-15T03:51:10;15.93;;;8.10;;
18796;SDS011;9526;52.612;13.300;2024-02-15T03:53:34;13.48;;;7.72;;
18796;SDS011;9526;52.612;13.300;2024-02-15T03:55:58;11.50;;;7.43;;
18796;SDS011;9526;52.612;13.300;2024-02-15T03:58:22;13.68;;;8.00;;
18796;SDS011;9526;52.612;13.300;2024-02-15T04:00:46;11.75;;;6.97;;
18796;SDS011;9526;52.612;13.300;2024-02-15T04:03:10;12.88;;;7.43;;
18796;SDS011;9526;52.612;13.300;2024-02-15T04:05:34;13.20;;;7.68;;
18796;SDS011;9526;52.612;13.300;2024-02-15T04:07:59;13.02;;;7.30;;
18796;SDS011;9526;52.612;13.300;2024-02-15T04:10:24;11.50;;;7.30;;
18796;SDS011;9526;52.612;13.300;2024-02-15T04:12:48;11.82;;;7.32;;
18796;SDS011;9526;52.612;13.300;2024-02-15T04:15:11;15.38;;;8.18;;
18796;SDS011;9526;52.612;13.300;2024-02-15T04:17:39;14.02;;;7.70;;
18796;SDS011;9526;52.612;13.300;2024-02-15T04:20:04;14.38;;;7.63;;
18796;SDS011;9526;52.612;13.300;2024-02-15T04:22:29;13.73;;;8.30;;
18796;SDS011;9526;52.612;13.300;2024-02-15T04:25:00;12.70;;;7.72;;
18796;SDS011;9526;52.612;13.300;2024-02-15T04:27:24;14.38;;;8.45;;
18796;SDS011;9526;52.612;13.300;2024-02-15T04:29:48;15.00;;;8.30;;
18796;SDS011;9526;52.612;13.300;2024-02-15T04:32:12;14.13;;;7.80;;
18796;SDS011;9526;52.612;13.300;2024-02-15T04:34:37;17.50;;;8.65;;
18796;SDS011;9526;52.612;13.300;2024-02-15T04:37:01;16.30;;;9.18;;
18796;SDS011;9526;52.612;13.300;2024-02-15T04:39:28;15.10;;;8.20;;
18796;SDS011;9526;52.612;13.300;2024-02-15T04:41:53;13.95;;;8.18;;
18796;SDS011;9526;52.612;13.300;2024-02-15T04:44:18;20.27;;;8.90;;
18796;SDS011;9526;52.612;13.300;2024-02-15T04:46:42;18.27;;;8.38;;
18796;SDS011;9526;52.612;13.300;2024-02-15T04:49:07;16.88;;;8.65;;
18796;SDS011;9526;52.612;13.300;2024-02-15T04:51:31;17.75;;;8.40;;
18796;SDS011;9526;52.612;13.300;2024-02-15T04:53:55;16.67;;;7.85;;
18796;SDS011;9526;52.612;13.300;2024-02-15T04:56:19;18.33;;;8.98;;
18796;SDS011;9526;52.612;13.300;2024-02-15T04:58:46;18.20;;;8.93;;
18796;SDS011;9526;52.612;13.300;2024-02-15T05:01:10;19.20;;;8.35;;
18796;SDS011;9526;52.612;13.300;2024-02-15T05:03:35;14.20;;;9.18;;
18796;SDS011;9526;52.612;13.300;2024-02-15T05:05:59;16.05;;;8.52;;
18796;SDS011;9526;52.612;13.300;2024-02-15T05:08:23;16.00;;;9.05;;
18796;SDS011;9526;52.612;13.300;2024-02-15T05:10:47;14.88;;;7.78;;
18796;SDS011;9526;52.612;13.300;2024-02-15T05:13:13;19.45;;;8.68;;
18796;SDS011;9526;52.612;13.300;2024-02-15T05:15:39;13.75;;;7.93;;
18796;SDS011;9526;52.612;13.300;2024-02-15T05:18:03;15.50;;;8.27;;
18796;SDS011;9526;52.612;13.300;2024-02-15T05:20:30;14.95;;;8.38;;
18796;SDS011;9526;52.612;13.300;2024-02-15T05:22:53;15.65;;;8.32;;
18796;SDS011;9526;52.612;13.300;2024-02-15T05:25:17;16.98;;;8.70;;
18796;SDS011;9526;52.612;13.300;2024-02-15T05:27:46;16.33;;;8.63;;
18796;SDS011;9526;52.612;13.300;2024-02-15T05:30:11;21.10;;;9.05;;
18796;SDS011;9526;52.612;13.300;2024-02-15T05:32:38;15.13;;;8.32;;
18796;SDS011;9526;52.612;13.300;2024-02-15T05:35:06;15.90;;;8.40;;
18796;SDS011;9526;52.612;13.300;2024-02-15T05:37:31;19.50;;;8.32;;
18796;SDS011;9526;52.612;13.300;2024-02-15T05:39:56;20.88;;;9.13;;
18796;SDS011;9526;52.612;13.300;2024-02-15T05:42:20;13.07;;;8.15;;
18796;SDS011;9526;52.612;13.300;2024-02-15T05:44:45;18.13;;;8.57;;
18796;SDS011;9526;52.612;13.300;2024-02-15T05:47:09;17.48;;;8.23;;
18796;SDS011;9526;52.612;13.300;2024-02-15T05:49:35;13.85;;;7.40;;
18796;SDS011;9526;52.612;13.300;2024-02-15T05:51:58;17.08;;;8.55;;
18796;SDS011;9526;52.612;13.300;2024-02-15T05:54:22;14.88;;;8.55;;
18796;SDS011;9526;52.612;13.300;2024-02-15T05:56:46;15.95;;;8.48;;
18796;SDS011;9526;52.612;13.300;2024-02-15T05:59:13;17.73;;;8.50;;
18796;SDS011;9526;52.612;13.300;2024-02-15T06:01:38;16.67;;;8.02;;
18796;SDS011;9526;52.612;13.300;2024-02-15T06:04:02;15.13;;;8.07;;
18796;SDS011;9526;52.612;13.300;2024-02-15T06:06:31;15.40;;;8.00;;
18796;SDS011;9526;52.612;13.300;2024-02-15T06:08:55;21.55;;;7.93;;
18796;SDS011;9526;52.612;13.300;2024-02-15T06:11:21;15.27;;;8.15;;
18796;SDS011;9526;52.612;13.300;2024-02-15T06:13:45;15.13;;;7.78;;
18796;SDS011;9526;52.612;13.300;2024-02-15T06:16:09;14.45;;;7.57;;
18796;SDS011;9526;52.612;13.300;2024-02-15T06:18:32;15.63;;;7.95;;
18796;SDS011;9526;52.612;13.300;2024-02-15T06:20:56;17.45;;;7.78;;
18796;SDS011;9526;52.612;13.300;2024-02-15T06:23:22;16.98;;;7.97;;
18796;SDS011;9526;52.612;13.300;2024-02-15T06:25:47;14.43;;;7.75;;
18796;SDS011;9526;52.612;13.300;2024-02-15T06:28:14;13.00;;;7.50;;
18796;SDS011;9526;52.612;13.300;2024-02-15T06:31:02;14.52;;;8.10;;
18796;SDS011;9526;52.612;13.300;2024-02-15T06:33:43;12.82;;;7.70;;
18796;SDS011;9526;52.612;13.300;2024-02-15T06:36:24;13.20;;;7.40;;
18796;SDS011;9526;52.612;13.300;2024-02-15T06:39:07;14.35;;;7.68;;
18796;SDS011;9526;52.612;13.300;2024-02-15T06:41:48;14.63;;;7.70;;
18796;SDS011;9526;52.612;13.300;2024-02-15T06:44:13;14.02;;;7.30;;
18796;SDS011;9526;52.612;13.300;2024-02-15T06:46:36;16.08;;;7.70;;
18796;SDS011;9526;52.612;13.300;2024-02-15T06:49:00;13.93;;;7.28;;
18796;SDS011;9526;52.612;13.300;2024-02-15T06:51:27;12.13;;;7.05;;
18796;SDS011;9526;52.612;13.300;2024-02-15T06:53:50;18.65;;;7.50;;
18796;SDS011;9526;52.612;13.300;2024-02-15T06:56:19;15.40;;;7.72;;
18796;SDS011;9526;52.612;13.300;2024-02-15T06:58:42;14.05;;;7.45;;
18796;SDS011;9526;52.612;13.300;2024-02-15T07:01:06;15.45;;;7.95;;
18796;SDS011;9526;52.612;13.300;2024-02-15T07:03:30;12.48;;;7.13;;
18796;SDS011;9526;52.612;13.300;2024-02-15T07:05:54;15.88;;;7.10;;
18796;SDS011;9526;52.612;13.300;2024-02-15T07:08:18;13.35;;;7.68;;
18796;SDS011;9526;52.612;13.300;2024-02-15T07:10:42;14.38;;;7.15;;
18796;SDS011;9526;52.612;13.300;2024-02-15T07:13:07;14.75;;;7.32;;
18796;SDS011;9526;52.612;13.300;2024-02-15T07:15:32;16.88;;;7.68;;
18796;SDS011;9526;52.612;13.300;2024-02-15T07:17:59;12.93;;;6.90;;
18796;SDS011;9526;52.612;13.300;2024-02-15T07:20:23;14.65;;;7.63;;
18796;SDS011;9526;52.612;13.300;2024-02-15T07:22:47;14.02;;;7.18;;
18796;SDS011;9526;52.612;13.300;2024-02-15T07:25:11;14.57;;;7.65;;
18796;SDS011;9526;52.612;13.300;2024-02-15T07:27:35;12.82;;;7.32;;
18796;SDS011;9526;52.612;13.300;2024-02-15T07:30:02;14.57;;;7.43;;
18796;SDS011;9526;52.612;13.300;2024-02-15T07:32:27;12.80;;;7.00;;
18796;SDS011;9526;52.612;13.300;2024-02-15T07:34:50;13.35;;;7.22;;
18796;SDS011;9526;52.612;13.300;2024-02-15T07:37:14;15.20;;;7.78;;
18796;SDS011;9526;52.612;13.300;2024-02-15T07:39:38;12.95;;;7.35;;
18796;SDS011;9526;52.612;13.300;2024-02-15T07:42:02;13.90;;;7.20;;
18796;SDS011;9526;52.612;13.300;2024-02-15T07:44:26;12.57;;;7.20;;
18796;SDS011;9526;52.612;13.300;2024-02-15T07:46:53;12.85;;;7.13;;
18796;SDS011;9526;52.612;13.300;2024-02-15T07:49:17;21.75;;;8.13;;
18796;SDS011;9526;52.612;13.300;2024-02-15T07:51:41;12.10;;;7.03;;
18796;SDS011;9526;52.612;13.300;2024-02-15T07:54:05;14.13;;;7.20;;
18796;SDS011;9526;52.612;13.300;2024-02-15T07:56:29;13.55;;;7.38;;
18796;SDS011;9526;52.612;13.300;2024-02-15T07:58:53;12.40;;;7.05;;
18796;SDS011;9526;52.612;13.300;2024-02-15T08:01:17;14.38;;;7.30;;
18796;SDS011;9526;52.612;13.300;2024-02-15T08:03:44;15.77;;;7.60;;
18796;SDS011;9526;52.612;13.300;2024-02-15T08:06:08;13.00;;;7.80;;
18796;SDS011;9526;52.612;13.300;2024-02-15T08:08:34;15.38;;;7.90;;
18796;SDS011;9526;52.612;13.300;2024-02-15T08:10:58;13.05;;;6.60;;
18796;SDS011;9526;52.612;13.300;2024-02-15T08:13:23;12.52;;;7.68;;
18796;SDS011;9526;52.612;13.300;2024-02-15T08:15:50;12.10;;;7.00;;
18796;SDS011;9526;52.612;13.300;2024-02-15T08:18:14;11.93;;;6.70;;
18796;SDS011;9526;52.612;13.300;2024-02-15T08:20:39;12.13;;;6.82;;
18796;SDS011;9526;52.612;13.300;2024-02-15T08:23:06;13.07;;;6.85;;
18796;SDS011;9526;52.612;13.300;2024-02-15T08:25:32;16.23;;;6.93;;
18796;SDS011;9526;52.612;13.300;2024-02-15T08:27:59;12.10;;;7.15;;
18796;SDS011;9526;52.612;13.300;2024-02-15T08:30:27;12.68;;;6.45;;
18796;SDS011;9526;52.612;13.300;2024-02-15T08:32:51;10.95;;;6.65;;
18796;SDS011;9526;52.612;13.300;2024-02-15T08:35:16;10.48;;;6.28;;
18796;SDS011;9526;52.612;13.300;2024-02-15T08:37:42;16.38;;;6.90;;
18796;SDS011;9526;52.612;13.300;2024-02-15T08:40:09;11.38;;;6.07;;
18796;SDS011;9526;52.612;13.300;2024-02-15T08:42:35;10.98;;;6.10;;
18796;SDS011;9526;52.612;13.300;2024-02-15T08:44:59;10.18;;;6.38;;
18796;SDS011;9526;52.612;13.300;2024-02-15T08:47:24;10.82;;;6.60;;
18796;SDS011;9526;52.612;13.300;2024-02-15T08:49:48;12.43;;;6.85;;
18796;SDS011;9526;52.612;13.300;2024-02-15T08:52:12;12.70;;;7.13;;
18796;SDS011;9526;52.612;13.300;2024-02-15T08:54:37;11.20;;;6.53;;
18796;SDS011;9526;52.612;13.300;2024-02-15T08:57:01;15.35;;;6.97;;
18796;SDS011;9526;52.612;13.300;2024-02-15T08:59:25;12.07;;;6.88;;
18796;SDS011;9526;52.612;13.300;2024-02-15T09:01:50;10.75;;;6.93;;
18796;SDS011;9526;52.612;13.300;2024-02-15T09:04:16;11.23;;;6.47;;
18796;SDS011;9526;52.612;13.300;2024-02-15T09:06:40;10.82;;;6.20;;
18796;SDS011;9526;52.612;13.300;2024-02-15T09:09:05;11.45;;;6.00;;
18796;SDS011;9526;52.612;13.300;2024-02-15T09:11:31;11.35;;;6.57;;
18796;SDS011;9526;52.612;13.300;2024-02-15T09:13:57;10.88;;;6.35;;
18796;SDS011;9526;52.612;13.300;2024-02-15T09:16:22;12.38;;;6.70;;
18796;SDS011;9526;52.612;13.300;2024-02-15T09:18:46;11.20;;;6.18;;
18796;SDS011;9526;52.612;13.300;2024-02-15T09:21:11;9.98;;;5.82;;
18796;SDS011;9526;52.612;13.300;2024-02-15T09:23:36;9.02;;;5.45;;
18796;SDS011;9526;52.612;13.300;2024-02-15T09:26:02;10.10;;;6.10;;
18796;SDS011;9526;52.612;13.300;2024-02-15T09:28:28;11.23;;;6.40;;
18796;SDS011;9526;52.612;13.300;2024-02-15T09:30:53;9.52;;;5.70;;
18796;SDS011;9526;52.612;13.300;2024-02-15T09:33:21;10.32;;;5.63;;
18796;SDS011;9526;52.612;13.300;2024-02-15T09:35:46;8.50;;;5.55;;
18796;SDS011;9526;52.612;13.300;2024-02-15T09:38:11;9.68;;;5.80;;
18796;SDS011;9526;52.612;13.300;2024-02-15T09:40:39;9.55;;;5.35;;
18796;SDS011;9526;52.612;13.300;2024-02-15T09:43:05;9.32;;;5.47;;
18796;SDS011;9526;52.612;13.300;2024-02-15T09:45:32;8.82;;;5.60;;
18796;SDS011;9526;52.612;13.300;2024-02-15T09:47:56;8.10;;;5.25;;
18796;SDS011;9526;52.612;13.300;2024-02-15T09:50:29;11.25;;;6.00;;
18796;SDS011;9526;52.612;13.300;2024-02-15T09:52:58;10.10;;;5.50;;
18796;SDS011;9526;52.612;13.300;2024-02-15T09:55:24;9.63;;;5.63;;
18796;SDS011;9526;52.612;13.300;2024-02-15T09:57:49;9.90;;;5.68;;
18796;SDS011;9526;52.612;13.300;2024-02-15T10:00:14;10.07;;;5.40;;
18796;SDS011;9526;52.612;13.300;2024-02-15T10:02:41;12.50;;;5.25;;
18796;SDS011;9526;52.612;13.300;2024-02-15T10:05:07;7.70;;;5.25;;
18796;SDS011;9526;52.612;13.300;2024-02-15T10:07:33;8.70;;;5.00;;
18796;SDS011;9526;52.612;13.300;2024-02-15T10:09:57;8.23;;;4.65;;
18796;SDS011;9526;52.612;13.300;2024-02-15T10:12:39;10.20;;;4.97;;
18796;SDS011;9526;52.612;13.300;2024-02-15T10:15:05;7.95;;;5.15;;
18796;SDS011;9526;52.612;13.300;2024-02-15T10:17:31;7.47;;;4.82;;
18796;SDS011;9526;52.612;13.300;2024-02-15T10:20:05;8.75;;;4.88;;
18796;SDS011;9526;52.612;13.300;2024-02-15T10:22:31;8.20;;;5.05;;
18796;SDS011;9526;52.612;13.300;2024-02-15T10:25:04;8.40;;;4.80;;
18796;SDS011;9526;52.612;13.300;2024-02-15T10:27:34;8.65;;;5.25;;
18796;SDS011;9526;52.612;13.300;2024-02-15T10:30:01;6.82;;;5.00;;
18796;SDS011;9526;52.612;13.300;2024-02-15T10:32:38;8.75;;;5.63;;
18796;SDS011;9526;52.612;13.300;2024-02-15T10:35:02;9.15;;;5.40;;
18796;SDS011;9526;52.612;13.300;2024-02-15T10:37:28;14.30;;;5.60;;
18796;SDS011;9526;52.612;13.300;2024-02-15T10:40:00;8.50;;;5.03;;
18796;SDS011;9526;52.612;13.300;2024-02-15T10:42:29;8.43;;;5.25;;
18796;SDS011;9526;52.612;13.300;2024-02-15T10:44:53;7.65;;;4.40;;
18796;SDS011;9526;52.612;13.300;2024-02-15T10:47:16;7.88;;;4.70;;
18796;SDS011;9526;52.612;13.300;2024-02-15T10:49:42;8.70;;;4.07;;
18796;SDS011;9526;52.612;13.300;2024-02-15T10:52:10;6.70;;;4.28;;
18796;SDS011;9526;52.612;13.300;2024-02-15T10:54:46;8.00;;;4.32;;
18796;SDS011;9526;52.612;13.300;2024-02-15T10:57:15;7.75;;;4.10;;
18796;SDS011;9526;52.612;13.300;2024-02-15T10:59:47;5.82;;;3.85;;
18796;SDS011;9526;52.612;13.300;2024-02-15T11:02:23;6.20;;;3.80;;
18796;SDS011;9526;52.612;13.300;2024-02-15T11:04:52;4.45;;;3.28;;
18796;SDS011;9526;52.612;13.300;2024-02-15T11:07:19;5.70;;;3.47;;
18796;SDS011;9526;52.612;13.300;2024-02-15T11:09:49;6.32;;;3.50;;
18796;SDS011;9526;52.612;13.300;2024-02-15T11:12:13;6.10;;;3.78;;
18796;SDS011;9526;52.612;13.300;2024-02-15T11:14:37;8.30;;;3.45;;
18796;SDS011;9526;52.612;13.300;2024-02-15T11:17:01;6.93;;;3.20;;
18796;SDS011;9526;52.612;13.300;2024-02-15T11:19:41;4.68;;;3.13;;
18796;SDS011;9526;52.612;13.300;2024-02-15T11:22:09;6.22;;;3.50;;
18796;SDS011;9526;52.612;13.300;2024-02-15T11:24:45;5.20;;;3.28;;
18796;SDS011;9526;52.612;13.300;2024-02-15T11:27:10;6.10;;;3.90;;
18796;SDS011;9526;52.612;13.300;2024-02-15T11:29:47;5.05;;;3.05;;
18796;SDS011;9526;52.612;13.300;2024-02-15T11:35:02;5.05;;;2.90;;
18796;SDS011;9526;52.612;13.300;2024-02-15T11:40:26;5.00;;;3.13;;
18796;SDS011;9526;52.612;13.300;2024-02-15T11:42:52;8.55;;;4.15;;
18796;SDS011;9526;52.612;13.300;2024-02-15T11:45:19;7.28;;;2.92;;
18796;SDS011;9526;52.612;13.300;2024-02-15T11:47:43;4.25;;;3.15;;
18796;SDS011;9526;52.612;13.300;2024-02-15T11:50:12;4.82;;;2.80;;
18796;SDS011;9526;52.612;13.300;2024-02-15T11:52:36;7.43;;;3.00;;
18796;SDS011;9526;52.612;13.300;2024-02-15T11:55:06;5.90;;;3.35;;
18796;SDS011;9526;52.612;13.300;2024-02-15T11:57:33;4.60;;;3.08;;
18796;SDS011;9526;52.612;13.300;2024-02-15T12:00:09;6.40;;;3.20;;
18796;SDS011;9526;52.612;13.300;2024-02-15T12:03:03;7.47;;;3.30;;
18796;SDS011;9526;52.612;13.300;2024-02-15T12:05:45;5.70;;;3.30;;
18796;SDS011;9526;52.612;13.300;2024-02-15T12:08:28;6.70;;;3.22;;
18796;SDS011;9526;52.612;13.300;2024-02-15T12:11:09;4.50;;;3.03;;
18796;SDS011;9526;52.612;13.300;2024-02-15T12:13:55;6.13;;;3.13;;
18796;SDS011;9526;52.612;13.300;2024-02-15T12:16:36;4.45;;;3.00;;
18796;SDS011;9526;52.612;13.300;2024-02-15T12:19:17;4.60;;;3.17;;
18796;SDS011;9526;52.612;13.300;2024-02-15T12:21:43;5.28;;;2.83;;
18796;SDS011;9526;52.612;13.300;2024-02-15T12:24:08;6.72;;;3.40;;
18796;SDS011;9526;52.612;13.300;2024-02-15T12:26:33;4.53;;;2.97;;
18796;SDS011;9526;52.612;13.300;2024-02-15T12:28:59;5.45;;;3.20;;
18796;SDS011;9526;52.612;13.300;2024-02-15T12:31:23;8.90;;;3.13;;
18796;SDS011;9526;52.612;13.300;2024-02-15T12:33:58;3.72;;;2.90;;
18796;SDS011;9526;52.612;13.300;2024-02-15T12:36:28;5.82;;;3.10;;
18796;SDS011;9526;52.612;13.300;2024-02-15T12:38:58;6.20;;;3.00;;
18796;SDS011;9526;52.612;13.300;2024-02-15T12:41:23;9.75;;;3.22;;
18796;SDS011;9526;52.612;13.300;2024-02-15T12:43:52;4.90;;;2.65;;
18796;SDS011;9526;52.612;13.300;2024-02-15T12:46:19;4.78;;;2.40;;
18796;SDS011;9526;52.612;13.300;2024-02-15T12:48:43;3.25;;;2.20;;
18796;SDS011;9526;52.612;13.300;2024-02-15T12:51:12;5.82;;;2.50;;
18796;SDS011;9526;52.612;13.300;2024-02-15T12:53:37;2.90;;;2.05;;
18796;SDS011;9526;52.612;13.300;2024-02-15T12:56:01;4.22;;;2.30;;
18796;SDS011;9526;52.612;13.300;2024-02-15T12:58:25;5.45;;;2.45;;
18796;SDS011;9526;52.612;13.300;2024-02-15T13:00:50;3.10;;;2.13;;
18796;SDS011;9526;52.612;13.300;2024-02-15T13:03:21;4.30;;;1.90;;
18796;SDS011;9526;52.612;13.300;2024-02-15T13:05:45;2.75;;;2.10;;
18796;SDS011;9526;52.612;13.300;2024-02-15T13:08:09;2.55;;;2.00;;
18796;SDS011;9526;52.612;13.300;2024-02-15T13:10:36;4.20;;;2.38;;
18796;SDS011;9526;52.612;13.300;2024-02-15T13:13:01;4.38;;;2.20;;
18796;SDS011;9526;52.612;13.300;2024-02-15T13:15:25;2.75;;;2.20;;
18796;SDS011;9526;52.612;13.300;2024-02-15T13:17:55;3.78;;;2.20;;
18796;SDS011;9526;52.612;13.300;2024-02-15T13:20:20;4.90;;;2.30;;
18796;SDS011;9526;52.612;13.300;2024-02-15T13:22:53;3.15;;;2.33;;
18796;SDS011;9526;52.612;13.300;2024-02-15T13:25:21;6.90;;;2.50;;
18796;SDS011;9526;52.612;13.300;2024-02-15T13:27:45;4.28;;;2.42;;
18796;SDS011;9526;52.612;13.300;2024-02-15T13:30:10;4.20;;;2.25;;
18796;SDS011;9526;52.612;13.300;2024-02-15T13:32:35;6.55;;;2.38;;
18796;SDS011;9526;52.612;13.300;2024-02-15T13:35:00;5.10;;;2.55;;
18796;SDS011;9526;52.612;13.300;2024-02-15T13:37:30;2.90;;;2.45;;
18796;SDS011;9526;52.612;13.300;2024-02-15T13:39:54;3.17;;;2.13;;
18796;SDS011;9526;52.612;13.300;2024-02-15T13:42:18;3.42;;;2.13;;
18796;SDS011;9526;52.612;13.300;2024-02-15T13:44:42;4.85;;;2.40;;
18796;SDS011;9526;52.612;13.300;2024-02-15T13:47:07;4.72;;;2.40;;
18796;SDS011;9526;52.612;13.300;2024-02-15T13:49:31;4.53;;;2.40;;
18796;SDS011;9526;52.612;13.300;2024-02-15T13:51:56;4.07;;;2.28;;
18796;SDS011;9526;52.612;13.300;2024-02-15T13:54:25;2.50;;;1.95;;
18796;SDS011;9526;52.612;13.300;2024-02-15T13:56:49;4.18;;;2.13;;
18796;SDS011;9526;52.612;13.300;2024-02-15T13:59:13;2.47;;;1.98;;
18796;SDS011;9526;52.612;13.300;2024-02-15T14:01:37;3.35;;;2.10;;
18796;SDS011;9526;52.612;13.300;2024-02-15T14:04:07;4.03;;;2.17;;
18796;SDS011;9526;52.612;13.300;2024-02-15T14:06:31;3.15;;;2.00;;
18796;SDS011;9526;52.612;13.300;2024-02-15T14:08:58;2.60;;;2.00;;
18796;SDS011;9526;52.612;13.300;2024-02-15T14:11:23;3.65;;;2.38;;
18796;SDS011;9526;52.612;13.300;2024-02-15T14:13:47;2.85;;;1.80;;
18796;SDS011;9526;52.612;13.300;2024-02-15T14:16:11;2.55;;;1.67;;
18796;SDS011;9526;52.612;13.300;2024-02-15T14:18:35;2.70;;;2.00;;
18796;SDS011;9526;52.612;13.300;2024-02-15T14:20:59;2.88;;;1.92;;
18796;SDS011;9526;52.612;13.300;2024-02-15T14:23:22;2.53;;;1.98;;
18796;SDS011;9526;52.612;13.300;2024-02-15T14:25:49;2.67;;;1.88;;
18796;SDS011;9526;52.612;13.300;2024-02-15T14:28:16;3.60;;;1.90;;
18796;SDS011;9526;52.612;13.300;2024-02-15T14:30:39;3.83;;;2.10;;
18796;SDS011;9526;52.612;13.300;2024-02-15T14:33:21;2.75;;;1.70;;
18796;SDS011;9526;52.612;13.300;2024-02-15T14:35:53;4.85;;;1.95;;
18796;SDS011;9526;52.612;13.300;2024-02-15T14:38:17;2.97;;;1.60;;
18796;SDS011;9526;52.612;13.300;2024-02-15T14:40:42;1.83;;;1.63;;